createdAt,value
2022-11-02T00:01:27.167Z,98950.88
2022-11-02T00:03:53.831Z,98958.28
2022-11-02T00:06:20.447Z,98957.38
2022-11-02T00:08:46.964Z,98953.25
2022-11-02T00:11:13.580Z,98957.88
2022-11-02T00:13:40.134Z,98959.25
2022-11-02T00:16:11.119Z,98953.66
2022-11-02T00:18:38.412Z,98961.31
2022-11-02T00:21:05.495Z,98956.78
2022-11-02T00:23:32.597Z,98955.84
2022-11-02T00:26:02.572Z,98956.84
2022-11-02T00:28:30.514Z,98963.22
2022-11-02T00:30:57.118Z,98953.50
2022-11-02T00:33:23.748Z,98964.63
2022-11-02T00:35:50.393Z,98961.09
2022-11-02T00:38:17.029Z,98964.38
2022-11-02T00:40:43.640Z,98965.03
2022-11-02T00:43:10.236Z,98959.69
2022-11-02T00:45:36.812Z,98963.03
2022-11-02T00:48:04.016Z,98962.72
2022-11-02T00:50:31.154Z,98967.47
2022-11-02T00:52:57.760Z,98967.09
2022-11-02T00:55:24.760Z,98973.38
2022-11-02T00:57:51.339Z,98972.13
2022-11-02T01:00:18.209Z,98972.56
2022-11-02T01:05:16.230Z,98981.91
2022-11-02T01:07:42.810Z,98979.09
2022-11-02T01:10:11.101Z,98968.78
2022-11-02T01:12:39.126Z,98974.50
2022-11-02T01:15:08.205Z,98966.69
2022-11-02T01:17:34.989Z,98974.41
2022-11-02T01:20:02.160Z,98964.56
2022-11-02T01:22:28.863Z,98960.59
2022-11-02T01:24:55.660Z,98971.34
2022-11-02T01:27:22.245Z,98971.78
2022-11-02T01:29:48.861Z,98959.88
2022-11-02T01:32:15.502Z,98962.16
2022-11-02T01:34:42.076Z,98963.75
2022-11-02T01:37:08.621Z,98964.56
2022-11-02T01:39:35.180Z,98959.81
2022-11-02T01:42:01.804Z,98957.84
2022-11-02T01:44:33.728Z,98960.25
2022-11-02T01:47:07.621Z,98954.22
2022-11-02T01:49:37.850Z,98956.28
2022-11-02T01:52:09.610Z,98952.84
2022-11-02T01:54:44.469Z,98952.72
2022-11-02T01:57:15.002Z,98950.69
2022-11-02T01:59:50.655Z,98945.50
2022-11-02T02:02:22.890Z,98946.72
2022-11-02T02:07:27.721Z,98946.66
2022-11-02T02:09:54.603Z,98945.75
2022-11-02T02:12:22.680Z,98942.22
2022-11-02T02:14:49.357Z,98943.72
2022-11-02T02:17:35.105Z,98930.28
2022-11-02T02:20:09.524Z,98922.34
2022-11-02T02:22:56.477Z,98913.00
2022-11-02T02:25:52.658Z,98916.88
2022-11-02T02:28:22.151Z,98916.88
2022-11-02T02:31:00.649Z,98921.56
2022-11-02T02:33:33.095Z,98905.06
2022-11-02T02:36:10.775Z,98909.13
2022-11-02T02:39:03.662Z,98906.41
2022-11-02T02:41:47.689Z,98906.66
2022-11-02T02:44:20.842Z,98908.94
2022-11-02T02:46:56.441Z,98907.00
2022-11-02T02:49:32.637Z,98908.59
2022-11-02T02:52:00.603Z,98906.66
2022-11-02T02:54:32.781Z,98916.53
2022-11-02T02:57:07.774Z,98912.19
2022-11-02T02:59:39.353Z,98913.25
2022-11-02T03:02:09.441Z,98906.28
2022-11-02T03:04:36.848Z,98898.34
2022-11-02T03:07:03.921Z,98897.56
2022-11-02T03:09:53.907Z,98897.81
2022-11-02T03:12:40.986Z,98901.47
2022-11-02T03:15:13.138Z,98897.56
2022-11-02T03:17:53.977Z,98895.09
2022-11-02T03:20:30.238Z,98900.03
2022-11-02T03:23:09.536Z,98893.00
2022-11-02T03:25:54.358Z,98889.63
2022-11-02T03:28:34.606Z,98907.97
2022-11-02T03:31:13.868Z,98903.66
2022-11-02T03:33:53.980Z,98905.22
2022-11-02T03:36:33.766Z,98913.44
2022-11-02T03:39:07.367Z,98916.25
2022-11-02T03:41:36.312Z,98916.34
2022-11-02T03:44:08.753Z,98918.00
2022-11-02T03:46:39.632Z,98916.78
2022-11-02T03:49:10.783Z,98913.06
2022-11-02T03:51:41.491Z,98921.34
2022-11-02T03:54:22.984Z,98922.19
2022-11-02T03:56:56.852Z,98924.75
2022-11-02T03:59:23.445Z,98927.03
2022-11-02T04:01:52.177Z,98914.53
2022-11-02T04:04:19.024Z,98917.09
2022-11-02T04:06:48.208Z,98929.53
2022-11-02T04:09:15.643Z,98926.25
2022-11-02T04:12:00.979Z,98927.13
2022-11-02T04:14:39.418Z,98925.59
2022-11-02T04:19:58.213Z,98925.97
2022-11-02T04:22:43.483Z,98934.25
2022-11-02T04:25:20.351Z,98936.28
2022-11-02T04:27:53.544Z,98938.94
2022-11-02T04:30:23.286Z,98937.78
2022-11-02T04:33:10.063Z,98944.59
2022-11-02T04:35:37.844Z,98938.16
2022-11-02T04:38:23.386Z,98936.72
2022-11-02T04:41:10.016Z,98936.66
2022-11-02T04:43:36.580Z,98938.69
2022-11-02T04:46:03.229Z,98940.25
2022-11-02T04:48:29.791Z,98934.47
2022-11-02T04:50:58.328Z,98943.44
2022-11-02T04:53:24.895Z,98949.53
2022-11-02T04:55:51.495Z,98946.84
2022-11-02T04:58:18.053Z,98943.28
2022-11-02T05:00:44.762Z,98949.25
2022-11-02T05:03:12.521Z,98955.19
2022-11-02T05:05:39.363Z,98947.44
2022-11-02T05:08:06.465Z,98951.22
2022-11-02T05:10:33.344Z,98952.06
2022-11-02T05:13:00.423Z,98957.94
2022-11-02T05:15:27.254Z,98962.28
2022-11-02T05:17:54.111Z,98960.41
2022-11-02T05:20:21.144Z,98968.25
2022-11-02T05:22:47.743Z,98962.53
2022-11-02T05:25:14.503Z,98966.84
2022-11-02T05:27:41.061Z,98963.13
2022-11-02T05:30:08.099Z,98960.56
2022-11-02T05:32:34.671Z,98968.69
2022-11-02T05:35:01.252Z,98965.78
2022-11-02T05:37:27.803Z,98965.97
2022-11-02T05:39:54.349Z,98974.44
2022-11-02T05:42:20.940Z,98979.06
2022-11-02T05:44:47.510Z,98984.91
2022-11-02T05:47:14.120Z,98974.16
2022-11-02T05:49:40.697Z,98977.88
2022-11-02T05:52:07.338Z,98978.03
2022-11-02T05:54:33.896Z,98973.53
2022-11-02T05:57:00.472Z,98975.13
2022-11-02T05:59:27.086Z,98974.69
2022-11-02T06:01:53.713Z,98974.94
2022-11-02T06:04:20.380Z,98968.41
2022-11-02T06:06:47.042Z,98981.19
2022-11-02T06:09:13.648Z,98976.09
2022-11-02T06:11:40.380Z,98990.25
2022-11-02T06:14:06.942Z,98991.88
2022-11-02T06:16:33.607Z,98988.16
2022-11-02T06:19:00.259Z,98988.16
2022-11-02T06:21:26.948Z,98994.84
2022-11-02T06:23:54.209Z,98998.16
2022-11-02T06:26:20.899Z,99000.56
2022-11-02T06:28:47.575Z,99005.25
2022-11-02T06:31:16.324Z,99010.16
2022-11-02T06:33:44.757Z,99021.91
2022-11-02T06:36:11.608Z,99008.66
2022-11-02T06:38:38.858Z,99018.09
2022-11-02T06:41:06.981Z,99023.31
2022-11-02T06:43:34.834Z,99025.06
2022-11-02T06:46:01.448Z,99034.44
2022-11-02T06:48:34.175Z,99033.09
2022-11-02T06:51:01.623Z,99037.22
2022-11-02T06:53:28.283Z,99045.00
2022-11-02T06:55:59.406Z,99051.56
2022-11-02T06:58:26.964Z,99052.63
2022-11-02T07:00:58.953Z,99060.41
2022-11-02T07:03:25.969Z,99064.38
2022-11-02T07:05:53.566Z,99066.03
2022-11-02T07:08:20.673Z,99072.66
2022-11-02T07:10:47.910Z,99094.09
2022-11-02T07:15:46.146Z,99086.41
2022-11-02T07:18:13.857Z,99097.09
2022-11-02T07:20:40.447Z,99105.03
2022-11-02T07:23:07.400Z,99102.63
2022-11-02T07:28:05.666Z,99107.97
2022-11-02T07:30:34.571Z,99109.81
2022-11-02T07:33:01.381Z,99122.09
2022-11-02T07:35:28.137Z,99122.44
2022-11-02T07:38:05.946Z,99119.59
2022-11-02T07:40:35.094Z,99119.31
2022-11-02T07:43:02.431Z,99123.47
2022-11-02T07:45:29.489Z,99121.69
2022-11-02T07:47:56.184Z,99127.16
2022-11-02T07:50:25.370Z,99121.44
2022-11-02T07:52:54.298Z,99121.16
2022-11-02T07:55:26.941Z,99127.00
2022-11-02T07:58:04.851Z,99126.78
2022-11-02T08:00:34.220Z,99129.97
2022-11-02T08:03:02.644Z,99130.75
2022-11-02T08:05:31.208Z,99124.41
2022-11-02T08:07:58.671Z,99134.09
2022-11-02T08:10:26.147Z,99133.53
2022-11-02T08:12:53.110Z,99119.06
2022-11-02T08:15:19.692Z,99123.09
2022-11-02T08:17:46.692Z,99133.19
2022-11-02T08:20:13.323Z,99130.34
2022-11-02T08:22:40.945Z,99135.41
2022-11-02T08:25:08.626Z,99134.09
2022-11-02T08:27:35.247Z,99134.97
2022-11-02T08:30:01.855Z,99133.31
2022-11-02T08:32:28.434Z,99137.00
2022-11-02T08:34:55.097Z,99134.53
2022-11-02T08:37:21.653Z,99138.66
2022-11-02T08:39:48.220Z,99132.03
2022-11-02T08:42:14.741Z,99139.81
2022-11-02T08:44:42.753Z,99136.81
2022-11-02T08:47:09.879Z,99139.28
2022-11-02T08:49:36.571Z,99135.72
2022-11-02T08:52:03.114Z,99137.28
2022-11-02T08:54:29.733Z,99142.13
2022-11-02T08:56:56.347Z,99134.66
2022-11-02T08:59:23.021Z,99135.75
2022-11-02T09:01:49.675Z,99136.50
2022-11-02T09:04:16.509Z,99145.16
2022-11-02T09:06:43.146Z,99144.41
2022-11-02T09:09:09.771Z,99145.34
2022-11-02T09:11:36.372Z,99143.09
2022-11-02T09:14:03.275Z,99147.16
2022-11-02T09:16:29.935Z,99152.22
2022-11-02T09:18:56.544Z,99150.34
2022-11-02T09:21:23.138Z,99149.16
2022-11-02T09:23:49.803Z,99138.47
2022-11-02T09:26:16.431Z,99145.63
2022-11-02T09:28:43.085Z,99145.31
2022-11-02T09:31:11.656Z,99146.16
2022-11-02T09:33:38.852Z,99145.00
2022-11-02T09:38:38.273Z,99142.34
2022-11-02T09:41:26.721Z,99142.94
2022-11-02T09:44:03.696Z,99146.44
2022-11-02T09:46:43.030Z,99146.97
2022-11-02T09:49:17.072Z,99146.97
2022-11-02T09:51:50.947Z,99156.75
2022-11-02T09:54:39.331Z,99161.16
2022-11-02T09:57:11.089Z,99170.63
2022-11-02T09:59:37.878Z,99165.06
2022-11-02T10:02:29.667Z,99169.47
2022-11-02T10:05:20.590Z,99176.44
2022-11-02T10:08:06.077Z,99181.00
2022-11-02T10:10:49.519Z,99173.44
2022-11-02T10:13:25.017Z,99175.91
2022-11-02T10:15:57.022Z,99167.31
2022-11-02T10:18:27.147Z,99165.06
2022-11-02T10:21:00.412Z,99158.47
2022-11-02T10:23:38.119Z,99167.97
2022-11-02T10:26:04.904Z,99166.38
2022-11-02T10:28:34.999Z,99159.72
2022-11-02T10:31:02.937Z,99159.00
2022-11-02T10:33:31.251Z,99166.50
2022-11-02T10:36:17.561Z,99161.00
2022-11-02T10:39:11.186Z,99162.22
2022-11-02T10:42:03.304Z,99164.63
2022-11-02T10:44:48.181Z,99158.00
2022-11-02T10:47:22.894Z,99165.50
2022-11-02T10:50:09.438Z,99165.97
2022-11-02T10:55:26.510Z,99166.31
2022-11-02T10:57:56.335Z,99169.13
2022-11-02T11:00:35.347Z,99169.41
2022-11-02T11:03:07.682Z,99171.34
2022-11-02T11:05:38.000Z,99158.78
2022-11-02T11:08:06.468Z,99159.13
2022-11-02T11:10:38.409Z,99152.47
2022-11-02T11:13:05.863Z,99162.00
2022-11-02T11:15:49.837Z,99167.56
2022-11-02T11:21:07.653Z,99155.47
2022-11-02T11:23:34.371Z,99143.28
2022-11-02T11:26:04.287Z,99148.75
2022-11-02T11:28:42.547Z,99153.06
2022-11-02T11:31:17.577Z,99149.22
2022-11-02T11:33:55.322Z,99150.88
2022-11-02T11:36:30.866Z,99151.47
2022-11-02T11:41:41.418Z,99149.09
2022-11-02T11:44:14.679Z,99150.56
2022-11-02T11:46:44.159Z,99137.78
2022-11-02T11:49:41.754Z,99138.72
2022-11-02T11:52:20.826Z,99128.31
2022-11-02T11:54:59.568Z,99124.06
2022-11-02T11:57:32.202Z,99124.53
2022-11-02T12:00:02.063Z,99126.53
2022-11-02T12:02:43.793Z,99126.06
2022-11-02T12:05:21.014Z,99121.81
2022-11-02T12:07:57.272Z,99119.44
2022-11-02T12:10:26.724Z,99119.00
2022-11-02T12:13:16.617Z,99115.88
2022-11-02T12:16:18.299Z,99109.59
2022-11-02T12:19:08.413Z,99111.47
2022-11-02T12:22:10.002Z,99107.78
2022-11-02T12:24:42.172Z,99101.00
2022-11-02T12:27:27.572Z,99100.13
2022-11-02T12:29:59.773Z,99114.19
2022-11-02T12:32:32.070Z,99090.63
2022-11-02T12:35:29.422Z,99088.34
2022-11-02T12:38:15.158Z,99088.91
2022-11-02T12:41:04.818Z,99087.84
2022-11-02T12:43:43.416Z,99082.72
2022-11-02T12:46:54.765Z,99087.13
2022-11-02T12:49:36.554Z,99092.50
2022-11-02T12:52:12.110Z,99087.06
2022-11-02T12:54:49.456Z,99078.84
2022-11-02T12:57:20.081Z,99074.50
2022-11-02T12:59:50.127Z,99075.72
2022-11-02T13:02:23.078Z,99072.94
2022-11-02T13:05:00.452Z,99070.97
2022-11-02T13:07:33.919Z,99071.75
2022-11-02T13:10:17.943Z,99061.94
2022-11-02T13:12:47.680Z,99061.09
2022-11-02T13:15:19.093Z,99058.38
2022-11-02T13:17:54.260Z,99066.59
2022-11-02T13:20:30.962Z,99076.00
2022-11-02T13:23:17.470Z,99070.06
2022-11-02T13:25:51.963Z,99052.41
2022-11-02T13:28:31.313Z,99060.63
2022-11-02T13:30:59.421Z,99052.34
2022-11-02T13:33:31.006Z,99050.72
2022-11-02T13:35:57.622Z,99049.16
2022-11-02T13:38:44.215Z,99047.94
2022-11-02T13:41:26.828Z,99048.34
2022-11-02T13:44:09.854Z,99052.22
2022-11-02T13:46:45.278Z,99051.44
2022-11-02T13:49:19.568Z,99045.94
2022-11-02T13:51:49.676Z,99040.00
2022-11-02T13:54:25.073Z,99043.59
2022-11-02T13:56:55.473Z,99049.84
2022-11-02T13:59:28.228Z,99048.66
2022-11-02T14:01:56.955Z,99058.09
2022-11-02T14:04:24.687Z,99047.06
2022-11-02T14:06:59.933Z,99052.91
2022-11-02T14:09:33.229Z,99052.50
2022-11-02T14:12:12.187Z,99045.00
2022-11-02T14:14:38.886Z,99045.00
2022-11-02T14:17:16.570Z,99048.47
2022-11-02T14:19:51.463Z,99050.44
2022-11-02T14:22:19.454Z,99056.75
2022-11-02T14:24:46.032Z,99059.03
2022-11-02T14:27:12.681Z,99054.59
2022-11-02T14:29:47.836Z,99057.31
2022-11-02T14:32:17.001Z,99064.75
2022-11-02T14:35:15.494Z,99055.72
2022-11-02T14:37:59.897Z,99048.94
2022-11-02T14:40:47.897Z,99051.75
2022-11-02T14:43:29.046Z,99055.63
2022-11-02T14:46:06.459Z,99051.75
2022-11-02T14:48:57.839Z,99057.19
2022-11-02T14:51:38.195Z,99055.56
2022-11-02T14:54:15.350Z,99054.66
2022-11-02T14:56:55.497Z,99035.06
2022-11-02T14:59:54.033Z,99049.88
2022-11-02T15:05:33.405Z,99037.66
2022-11-02T15:08:07.927Z,99034.88
2022-11-02T15:10:43.555Z,99032.84
2022-11-02T15:13:18.703Z,99037.13
2022-11-02T15:15:50.884Z,99033.16
2022-11-02T15:18:29.290Z,99036.28
2022-11-02T15:21:10.829Z,99026.44
2022-11-02T15:23:51.019Z,99029.06
2022-11-02T15:26:47.405Z,99019.53
2022-11-02T15:29:30.110Z,99020.59
2022-11-02T15:31:58.542Z,99019.78
2022-11-02T15:34:48.995Z,99011.88
2022-11-02T15:37:22.809Z,99028.94
2022-11-02T15:39:54.560Z,99021.13
2022-11-02T15:42:30.040Z,99014.16
2022-11-02T15:45:48.976Z,99011.31
2022-11-02T15:48:48.670Z,99014.19
2022-11-02T15:51:25.409Z,99009.72
2022-11-02T15:54:09.478Z,99008.44
2022-11-02T15:56:46.526Z,99014.09
2022-11-02T15:59:41.199Z,99007.53
2022-11-02T16:02:28.447Z,99004.44
2022-11-02T16:05:00.264Z,99012.38
2022-11-02T16:07:33.431Z,99009.75
2022-11-02T16:10:24.183Z,99014.19
2022-11-02T16:13:19.813Z,99020.06
2022-11-02T16:15:49.038Z,99012.72
2022-11-02T16:18:22.874Z,99007.91
2022-11-02T16:20:50.051Z,99017.03
2022-11-02T16:23:24.859Z,99013.16
2022-11-02T16:25:54.528Z,99009.81
2022-11-02T16:28:23.381Z,99008.22
2022-11-02T16:31:04.265Z,99009.38
2022-11-02T16:33:40.015Z,99013.41
2022-11-02T16:36:11.543Z,99008.50
2022-11-02T16:38:39.145Z,99005.91
2022-11-02T16:41:09.804Z,99012.75
2022-11-02T16:43:40.418Z,99016.13
2022-11-02T16:49:13.129Z,99005.78
2022-11-02T16:51:40.352Z,99008.91
2022-11-02T16:54:28.476Z,99004.34
2022-11-02T16:57:00.301Z,99013.00
2022-11-02T16:59:26.912Z,99007.09
2022-11-02T17:02:00.128Z,99006.84
2022-11-02T17:04:30.711Z,99001.88
2022-11-02T17:07:09.605Z,98999.53
2022-11-02T17:09:36.413Z,98996.19
2022-11-02T17:12:11.965Z,99003.97
2022-11-02T17:14:43.532Z,98994.81
2022-11-02T17:17:25.093Z,98989.75
2022-11-02T17:19:57.018Z,98987.16
2022-11-02T17:22:27.288Z,98988.06
2022-11-02T17:25:19.960Z,98988.66
2022-11-02T17:27:49.813Z,98987.56
2022-11-02T17:30:34.783Z,98990.03
2022-11-02T17:33:21.358Z,98981.91
2022-11-02T17:35:49.503Z,98971.63
2022-11-02T17:38:16.822Z,98966.94
2022-11-02T17:40:43.571Z,98980.50
2022-11-02T17:43:10.131Z,98973.19
2022-11-02T17:45:38.620Z,98961.63
2022-11-02T17:48:07.572Z,98964.75
2022-11-02T17:50:36.722Z,98960.44
2022-11-02T17:53:05.286Z,98956.88
2022-11-02T17:55:34.414Z,98956.66
2022-11-02T17:58:01.237Z,98957.00
2022-11-02T18:00:28.809Z,98960.00
2022-11-02T18:02:57.813Z,98956.03
2022-11-02T18:05:28.595Z,98957.16
2022-11-02T18:07:56.914Z,98946.16
2022-11-02T18:10:27.535Z,98950.69
2022-11-02T18:12:54.120Z,98942.75
2022-11-02T18:15:24.256Z,98943.75
2022-11-02T18:17:51.214Z,98946.06
2022-11-02T18:20:19.492Z,98942.44
2022-11-02T18:22:46.924Z,98946.69
2022-11-02T18:25:15.568Z,98945.19
2022-11-02T18:27:42.251Z,98944.41
2022-11-02T18:30:11.788Z,98934.50
2022-11-02T18:32:39.659Z,98934.28
2022-11-02T18:35:10.409Z,98929.03
2022-11-02T18:37:38.461Z,98929.19
2022-11-02T18:40:11.748Z,98931.31
2022-11-02T18:42:40.295Z,98930.34
2022-11-02T18:45:08.307Z,98932.81
2022-11-02T18:47:35.239Z,98922.38
2022-11-02T18:50:01.961Z,98925.13
2022-11-02T18:52:32.555Z,98919.75
2022-11-02T18:55:05.018Z,98919.22
2022-11-02T18:57:32.771Z,98918.63
2022-11-02T19:00:00.775Z,98926.63
2022-11-02T19:02:27.492Z,98926.28
2022-11-02T19:04:54.136Z,98924.09
2022-11-02T19:07:39.408Z,98918.03
2022-11-02T19:10:06.573Z,98914.94
2022-11-02T19:12:33.283Z,98913.38
2022-11-02T19:14:59.892Z,98921.03
2022-11-02T19:17:26.993Z,98925.44
2022-11-02T19:19:54.000Z,98925.19
2022-11-02T19:22:22.655Z,98915.13
2022-11-02T19:24:50.074Z,98918.31
2022-11-02T19:27:25.488Z,98915.47
2022-11-02T19:29:52.331Z,98914.53
2022-11-02T19:32:19.885Z,98907.78
2022-11-02T19:34:46.502Z,98910.97
2022-11-02T19:37:13.320Z,98912.72
2022-11-02T19:39:40.151Z,98904.97
2022-11-02T19:42:07.633Z,98918.31
2022-11-02T19:44:41.037Z,98910.91
2022-11-02T19:47:09.043Z,98919.00
2022-11-02T19:49:35.567Z,98909.66
2022-11-02T19:52:02.213Z,98915.19
2022-11-02T19:54:28.784Z,98911.50
2022-11-02T19:56:55.374Z,98909.06
2022-11-02T19:59:22.697Z,98907.28
2022-11-02T20:01:50.792Z,98914.41
2022-11-02T20:04:17.912Z,98913.63
2022-11-02T20:06:44.813Z,98900.50
2022-11-02T20:09:17.056Z,98907.31
2022-11-02T20:11:45.401Z,98901.41
2022-11-02T20:14:13.586Z,98908.09
2022-11-02T20:16:40.980Z,98904.91
2022-11-02T20:19:07.853Z,98899.53
2022-11-02T20:21:39.868Z,98897.78
2022-11-02T20:24:10.528Z,98901.81
2022-11-02T20:26:38.410Z,98891.22
2022-11-02T20:29:06.965Z,98896.00
2022-11-02T20:34:08.559Z,98884.81
2022-11-02T20:36:35.792Z,98891.00
2022-11-02T20:39:05.579Z,98885.63
2022-11-02T20:41:32.277Z,98891.47
2022-11-02T20:46:41.207Z,98892.84
2022-11-02T20:49:20.645Z,98896.56
2022-11-02T20:51:56.079Z,98891.59
2022-11-02T20:54:23.043Z,98896.41
2022-11-02T20:56:50.195Z,98895.56
2022-11-02T20:59:17.445Z,98891.97
2022-11-02T21:04:20.228Z,98879.38
2022-11-02T21:06:48.876Z,98875.47
2022-11-02T21:09:15.659Z,98873.63
2022-11-02T21:12:01.089Z,98863.06
2022-11-02T21:14:27.596Z,98875.50
2022-11-02T21:16:54.159Z,98874.25
2022-11-02T21:19:20.823Z,98875.34
2022-11-02T21:21:47.419Z,98877.66
2022-11-02T21:24:14.079Z,98883.47
2022-11-02T21:26:40.668Z,98872.56
2022-11-02T21:29:07.339Z,98872.56
2022-11-02T21:31:34.043Z,98877.50
2022-11-02T21:34:00.609Z,98867.75
2022-11-02T21:36:27.220Z,98868.53
2022-11-02T21:38:54.013Z,98870.34
2022-11-02T21:41:24.937Z,98877.41
2022-11-02T21:43:52.417Z,98857.09
2022-11-02T21:46:20.013Z,98855.41
2022-11-02T21:48:47.017Z,98859.28
2022-11-02T21:51:16.139Z,98852.59
2022-11-02T21:53:44.262Z,98846.13
2022-11-02T21:56:13.739Z,98847.63
2022-11-02T21:58:44.808Z,98841.50
2022-11-02T22:01:39.600Z,98845.22
2022-11-02T22:04:07.452Z,98840.22
2022-11-02T22:06:34.612Z,98826.13
2022-11-02T22:09:01.967Z,98832.25
2022-11-02T22:11:28.699Z,98833.06
2022-11-02T22:13:59.933Z,98828.28
2022-11-02T22:16:28.264Z,98818.81
2022-11-02T22:18:57.310Z,98818.19
2022-11-02T22:21:25.596Z,98815.16
2022-11-02T22:23:52.962Z,98817.38
2022-11-02T22:26:21.834Z,98832.94
2022-11-02T22:28:49.127Z,98820.72
2022-11-02T22:31:21.871Z,98822.91
2022-11-02T22:33:51.548Z,98817.09
2022-11-02T22:36:20.504Z,98819.47
2022-11-02T22:38:56.657Z,98824.47
2022-11-02T22:41:39.071Z,98817.25
2022-11-02T22:44:12.474Z,98816.59
2022-11-02T22:46:41.247Z,98812.75
2022-11-02T22:49:09.782Z,98814.78
2022-11-02T22:51:47.778Z,98817.19
2022-11-02T22:54:17.311Z,98815.25
2022-11-02T22:56:45.506Z,98808.22
2022-11-02T22:59:12.671Z,98813.91
2022-11-02T23:01:39.569Z,98806.44
2022-11-02T23:06:38.900Z,98801.88
2022-11-02T23:09:05.722Z,98789.47
2022-11-02T23:11:36.494Z,98782.91
2022-11-02T23:14:14.829Z,98785.63
2022-11-02T23:16:44.114Z,98796.22
2022-11-02T23:19:31.283Z,98791.22
2022-11-02T23:22:16.938Z,98791.56
2022-11-02T23:25:07.330Z,98791.56
2022-11-02T23:27:56.278Z,98794.31
2022-11-02T23:30:42.104Z,98786.34
2022-11-02T23:33:09.113Z,98800.28
2022-11-02T23:35:54.729Z,98797.56
2022-11-02T23:43:32.839Z,98787.84
2022-11-02T23:45:59.470Z,98785.38
2022-11-02T23:48:26.050Z,98784.09
2022-11-02T23:51:11.170Z,98787.75
2022-11-02T23:53:56.087Z,98789.81
2022-11-02T23:56:40.943Z,98772.22
2022-11-02T23:59:07.585Z,98772.59
